Time;durP1;ratioP1;P1;durP2;ratioP2;P2;SDS_P1;SDS_P2;PMS_P1;PMS_P2;Temp;Humidity;BMP_temperature;BMP_pressure;BME280_temperature;BME280_humidity;BME280_pressure;Samples;Min_cycle;Max_cycle;Signal;HPM_P1;HPM_P2
2022/07/28 00:00:01;;;;;;;4.30;2.13;;;16.60;99.90;;;;;;5112168;27;20051;-64
2022/07/28 00:02:28;;;;;;;5.20;2.05;;;16.60;99.90;;;;;;5114908;28;20052;-64
2022/07/28 00:04:55;;;;;;;4.28;2.15;;;16.60;99.90;;;;;;5114187;28;20075;-64
2022/07/28 00:07:22;;;;;;;4.15;1.30;;;16.60;99.90;;;;;;5112112;28;20048;-64
2022/07/28 00:09:49;;;;;;;4.38;1.40;;;16.60;99.90;;;;;;5095917;28;20063;-64
2022/07/28 00:12:15;;;;;;;4.97;1.50;;;16.50;99.90;;;;;;5114828;28;20087;-64
2022/07/28 00:14:42;;;;;;;4.75;1.30;;;16.50;99.90;;;;;;5107325;28;20475;-64
2022/07/28 00:17:09;;;;;;;3.85;1.77;;;16.50;99.90;;;;;;5113034;28;20039;-64
2022/07/28 00:19:36;;;;;;;3.58;1.63;;;16.50;99.90;;;;;;5108405;28;20063;-64
2022/07/28 00:22:03;;;;;;;2.95;1.55;;;16.50;99.90;;;;;;5093807;28;20044;-64
2022/07/28 00:24:30;;;;;;;4.45;1.70;;;16.50;99.90;;;;;;5075431;28;20048;-65
2022/07/28 00:26:57;;;;;;;4.45;2.08;;;16.40;99.90;;;;;;5093754;28;20052;-64
2022/07/28 00:29:25;;;;;;;5.80;1.80;;;16.40;99.90;;;;;;5107432;28;20047;-66
2022/07/28 00:32:11;;;;;;;3.28;2.00;;;16.40;99.90;;;;;;5111839;27;20457;-64
2022/07/28 00:34:39;;;;;;;5.25;1.67;;;16.40;99.90;;;;;;5111583;28;20490;-64
2022/07/28 00:37:08;;;;;;;4.43;1.88;;;16.40;99.90;;;;;;5113209;28;20134;-64
2022/07/28 00:39:40;;;;;;;5.80;1.92;;;16.40;99.90;;;;;;5111898;28;20051;-64
2022/07/28 00:42:07;;;;;;;2.53;1.40;;;16.40;99.90;;;;;;5113215;28;20051;-64
2022/07/28 00:44:35;;;;;;;4.47;1.52;;;16.40;99.90;;;;;;5112043;27;20126;-64
2022/07/28 00:47:02;;;;;;;4.07;1.80;;;16.30;99.90;;;;;;5094191;28;20040;-65
2022/07/28 00:49:29;;;;;;;4.22;1.65;;;16.30;99.90;;;;;;5111529;27;20050;-64
2022/07/28 00:51:56;;;;;;;5.10;1.90;;;16.20;99.90;;;;;;5113333;28;20426;-64
2022/07/28 00:54:23;;;;;;;3.78;1.73;;;16.20;99.90;;;;;;5113466;28;20494;-64
2022/07/28 00:56:50;;;;;;;4.30;1.90;;;16.20;99.90;;;;;;5095216;28;20051;-64
2022/07/28 00:59:16;;;;;;;7.00;1.90;;;16.10;99.90;;;;;;5099127;28;20090;-64
2022/07/28 01:01:43;;;;;;;3.92;1.85;;;16.10;99.90;;;;;;5093270;28;20059;-64
2022/07/28 01:04:10;;;;;;;4.50;1.67;;;16.10;99.90;;;;;;5100652;28;20051;-63
2022/07/28 01:06:53;;;;;;;5.30;1.90;;;16.10;99.90;;;;;;5105691;28;20050;-65
2022/07/28 01:09:37;;;;;;;3.33;1.77;;;16.10;99.90;;;;;;5112668;28;20507;-64
2022/07/28 01:12:13;;;;;;;3.03;1.45;;;16.10;99.90;;;;;;5113166;27;20063;-64
2022/07/28 01:15:12;;;;;;;5.05;1.58;;;16.00;99.90;;;;;;5110542;28;20052;-64
2022/07/28 01:18:14;;;;;;;6.78;1.80;;;16.10;99.90;;;;;;5113070;28;20047;-64
2022/07/28 01:20:46;;;;;;;7.07;2.47;;;16.10;99.90;;;;;;5088207;28;20055;-64
2022/07/28 01:23:31;;;;;;;2.83;1.80;;;16.10;99.90;;;;;;5096442;28;20048;-64
2022/07/28 01:26:10;;;;;;;2.92;1.75;;;16.10;99.90;;;;;;5111708;27;20055;-65
2022/07/28 01:28:49;;;;;;;3.08;1.70;;;16.10;99.90;;;;;;5113236;28;20054;-65
2022/07/28 01:31:24;;;;;;;4.05;1.63;;;16.10;99.90;;;;;;5112929;28;20052;-64
2022/07/28 01:33:57;;;;;;;2.20;1.70;;;16.00;99.90;;;;;;5094427;28;20067;-64
2022/07/28 01:36:28;;;;;;;4.57;1.80;;;16.00;99.90;;;;;;5107990;28;20057;-64
2022/07/28 01:38:55;;;;;;;4.80;1.88;;;16.00;99.90;;;;;;5110715;28;20057;-64
2022/07/28 01:41:24;;;;;;;3.92;1.90;;;16.00;99.90;;;;;;5110975;28;20049;-64
2022/07/28 01:43:54;;;;;;;7.07;1.80;;;16.00;99.90;;;;;;5111365;28;20122;-64
2022/07/28 01:46:20;;;;;;;3.67;1.52;;;16.00;99.90;;;;;;5110046;28;20374;-64
2022/07/28 01:48:48;;;;;;;6.55;2.03;;;16.00;99.90;;;;;;5110575;28;20494;-64
2022/07/28 01:51:15;;;;;;;3.92;2.13;;;16.00;99.90;;;;;;5074610;28;20039;-64
2022/07/28 01:53:42;;;;;;;5.13;2.00;;;16.00;99.90;;;;;;5110918;28;20048;-64
2022/07/28 01:56:08;;;;;;;5.47;2.00;;;16.00;99.90;;;;;;5107925;28;20047;-64
2022/07/28 01:58:36;;;;;;;4.35;1.92;;;16.00;99.90;;;;;;5092967;28;20050;-65
2022/07/28 02:01:03;;;;;;;5.70;1.90;;;16.00;99.90;;;;;;5111037;28;20104;-64
2022/07/28 02:03:30;;;;;;;4.18;2.13;;;16.00;99.90;;;;;;5092808;28;20494;-64
2022/07/28 02:05:57;;;;;;;5.35;1.83;;;16.00;99.90;;;;;;5109740;28;20044;-64
2022/07/28 02:08:24;;;;;;;5.03;2.33;;;16.10;99.90;;;;;;5090801;28;20067;-64
2022/07/28 02:13:57;;;;;;;5.22;1.80;;;16.10;99.90;;;;;;5024768;28;20053;-64
2022/07/28 02:16:24;;;;;;;4.05;2.30;;;16.10;99.90;;;;;;5026780;28;20047;-64
2022/07/28 02:18:53;;;;;;;4.88;2.10;;;16.10;99.90;;;;;;5067097;28;20044;-63
2022/07/28 02:21:20;;;;;;;3.60;2.00;;;16.10;99.90;;;;;;5110137;28;20051;-66
2022/07/28 02:23:47;;;;;;;3.83;1.80;;;16.10;99.90;;;;;;5087972;28;20040;-64
2022/07/28 02:26:15;;;;;;;4.28;2.13;;;16.10;99.90;;;;;;5089755;28;20047;-64
2022/07/28 02:28:45;;;;;;;4.55;2.35;;;16.10;99.90;;;;;;5096533;28;20062;-64
2022/07/28 02:31:36;;;;;;;4.77;2.00;;;16.10;99.90;;;;;;5093279;28;20055;-64
2022/07/28 02:34:07;;;;;;;6.32;2.40;;;16.10;99.90;;;;;;5080589;28;20446;-64
2022/07/28 02:36:37;;;;;;;4.45;1.95;;;16.10;99.90;;;;;;5076902;28;20128;-64
2022/07/28 02:39:10;;;;;;;3.20;2.25;;;16.10;99.90;;;;;;5108312;28;20469;-64
2022/07/28 02:41:41;;;;;;;6.80;2.45;;;16.10;99.90;;;;;;5093665;28;20052;-65
2022/07/28 02:44:12;;;;;;;8.60;2.92;;;16.10;99.90;;;;;;5109344;28;20067;-64
2022/07/28 02:46:44;;;;;;;6.13;2.40;;;16.10;99.90;;;;;;5110244;28;20083;-64
2022/07/28 02:49:17;;;;;;;2.67;1.70;;;16.10;99.90;;;;;;5088434;28;20119;-64
2022/07/28 02:51:44;;;;;;;4.22;2.33;;;16.10;99.90;;;;;;5073151;28;20131;-64
2022/07/28 02:54:11;;;;;;;3.33;1.92;;;16.10;99.90;;;;;;5091822;28;20097;-64
2022/07/28 02:56:39;;;;;;;4.63;2.65;;;16.10;99.90;;;;;;5108804;28;20043;-64
2022/07/28 02:59:06;;;;;;;3.53;2.15;;;16.10;99.90;;;;;;5111616;28;20043;-68
2022/07/28 03:01:33;;;;;;;3.72;1.83;;;16.10;99.90;;;;;;5081696;28;20044;-64
2022/07/28 03:04:00;;;;;;;7.35;3.20;;;16.10;99.90;;;;;;5113826;28;20046;-64
2022/07/28 03:06:27;;;;;;;7.50;2.20;;;16.10;99.90;;;;;;5097870;28;20048;-64
2022/07/28 03:08:56;;;;;;;7.15;2.10;;;16.10;99.90;;;;;;5114058;28;20379;-64
2022/07/28 03:11:22;;;;;;;5.97;2.53;;;16.10;99.90;;;;;;5092082;28;20055;-65
2022/07/28 03:13:49;;;;;;;5.40;2.25;;;16.10;99.90;;;;;;5113793;28;20055;-64
2022/07/28 03:16:16;;;;;;;5.32;2.40;;;16.10;99.90;;;;;;5112109;28;20044;-63
2022/07/28 03:18:43;;;;;;;5.25;2.08;;;16.10;99.90;;;;;;5114062;27;20074;-64
2022/07/28 03:21:10;;;;;;;4.30;2.00;;;16.10;99.90;;;;;;5114060;28;20044;-64
2022/07/28 03:23:40;;;;;;;4.82;2.65;;;16.10;99.90;;;;;;5114721;28;20060;-64
2022/07/28 03:26:18;;;;;;;3.90;2.20;;;16.10;99.90;;;;;;5112133;28;20051;-64
2022/07/28 03:28:45;;;;;;;6.60;2.10;;;16.10;99.90;;;;;;5110968;28;20491;-64
2022/07/28 03:31:12;;;;;;;4.30;2.20;;;16.20;99.90;;;;;;5113443;27;20054;-64
2022/07/28 03:34:23;;;;;;;3.20;2.10;;;16.20;99.90;;;;;;5113887;28;20044;-63
2022/07/28 03:36:55;;;;;;;4.43;2.28;;;16.10;99.90;;;;;;5107778;28;20036;-64
2022/07/28 03:39:23;;;;;;;8.00;2.80;;;16.10;99.90;;;;;;5112764;28;20051;-64
2022/07/28 03:41:50;;;;;;;8.05;2.00;;;16.10;99.90;;;;;;5112100;28;20054;-64
2022/07/28 03:44:17;;;;;;;5.18;1.90;;;16.10;99.90;;;;;;5110402;28;20063;-64
2022/07/28 03:46:54;;;;;;;4.70;1.88;;;16.10;99.90;;;;;;5112021;28;20147;-64
2022/07/28 03:49:21;;;;;;;5.57;2.85;;;16.00;99.90;;;;;;5112850;28;20043;-64
2022/07/28 03:51:48;;;;;;;4.40;1.85;;;16.00;99.90;;;;;;5112854;28;20054;-65
2022/07/28 03:54:15;;;;;;;3.35;2.00;;;15.90;99.90;;;;;;5084139;28;20048;-64
2022/07/28 03:56:43;;;;;;;4.03;2.10;;;15.90;99.90;;;;;;5094542;28;20076;-65
2022/07/28 03:59:10;;;;;;;5.38;1.83;;;15.80;99.90;;;;;;5111572;28;20050;-65
2022/07/28 04:01:37;;;;;;;5.22;2.17;;;15.80;99.90;;;;;;5097776;28;21698;-64
2022/07/28 04:04:04;;;;;;;7.10;2.08;;;15.80;99.90;;;;;;5112277;28;20050;-64
2022/07/28 04:06:31;;;;;;;3.58;1.80;;;15.80;99.90;;;;;;5106252;28;20047;-64
2022/07/28 04:08:58;;;;;;;8.43;2.95;;;15.70;99.90;;;;;;5112567;28;20410;-64
2022/07/28 04:11:25;;;;;;;2.90;1.65;;;15.70;99.90;;;;;;5111329;28;20070;-64
2022/07/28 04:13:52;;;;;;;3.67;2.13;;;15.70;99.90;;;;;;5095646;28;20093;-64
2022/07/28 04:16:19;;;;;;;14.68;12.57;;;15.70;99.90;;;;;;5110934;28;20463;-64
2022/07/28 04:18:47;;;;;;;5.40;3.72;;;15.70;99.90;;;;;;5111729;28;20073;-64
2022/07/28 04:21:15;;;;;;;9.75;5.50;;;15.70;99.90;;;;;;5110092;27;20048;-63
2022/07/28 04:23:42;;;;;;;6.25;4.05;;;15.70;99.90;;;;;;5112094;28;20491;-66
2022/07/28 04:26:08;;;;;;;5.20;2.95;;;15.60;99.90;;;;;;5112805;28;20043;-66
2022/07/28 04:28:35;;;;;;;4.35;2.38;;;15.60;99.90;;;;;;5111155;28;20059;-64
2022/07/28 04:31:02;;;;;;;6.55;2.10;;;15.60;99.90;;;;;;5092329;28;20047;-65
2022/07/28 04:33:29;;;;;;;4.70;2.20;;;15.60;99.90;;;;;;5111388;28;20044;-64
2022/07/28 04:35:56;;;;;;;7.65;2.30;;;15.60;99.90;;;;;;5111995;28;20118;-63
2022/07/28 04:38:23;;;;;;;4.97;2.75;;;15.60;99.90;;;;;;5095100;28;20387;-64
2022/07/28 04:40:50;;;;;;;7.25;2.25;;;15.60;99.90;;;;;;5111036;28;20407;-64
2022/07/28 04:43:17;;;;;;;6.35;2.25;;;15.60;99.90;;;;;;5111810;28;20104;-65
2022/07/28 04:45:45;;;;;;;4.30;2.05;;;15.70;99.90;;;;;;5112081;28;20050;-64
2022/07/28 04:48:20;;;;;;;4.82;2.55;;;15.70;99.90;;;;;;5099539;28;20052;-63
2022/07/28 04:50:48;;;;;;;4.78;2.10;;;15.70;99.90;;;;;;5107869;28;20060;-64
2022/07/28 04:53:17;;;;;;;6.20;2.30;;;15.70;99.90;;;;;;5108136;28;20480;-65
2022/07/28 04:55:44;;;;;;;5.95;2.67;;;15.70;99.90;;;;;;5093513;28;20055;-64
2022/07/28 04:58:12;;;;;;;6.18;2.53;;;15.80;99.90;;;;;;5111847;28;20101;-64
2022/07/28 05:00:39;;;;;;;5.57;2.30;;;15.80;99.90;;;;;;5111931;28;20058;-64
2022/07/28 05:03:06;;;;;;;6.63;2.20;;;15.90;99.90;;;;;;5109838;28;20484;-64
2022/07/28 05:05:33;;;;;;;6.25;2.47;;;15.90;99.90;;;;;;5108623;28;20044;-64
2022/07/28 05:08:00;;;;;;;7.93;2.75;;;15.90;99.90;;;;;;5108327;28;20040;-67
2022/07/28 05:10:27;;;;;;;8.98;2.75;;;15.90;99.90;;;;;;5111887;28;20048;-65
2022/07/28 05:12:54;;;;;;;8.48;3.33;;;15.90;99.90;;;;;;5112735;28;20059;-64
2022/07/28 05:15:21;;;;;;;9.05;2.20;;;16.00;99.90;;;;;;5094353;28;20444;-64
2022/07/28 05:17:48;;;;;;;6.68;2.17;;;16.00;99.90;;;;;;5111490;28;20714;-64
2022/07/28 05:20:16;;;;;;;7.85;2.42;;;16.00;99.90;;;;;;5091817;28;20313;-64
2022/07/28 05:22:44;;;;;;;9.88;2.45;;;16.00;99.90;;;;;;5111109;28;20048;-64
2022/07/28 05:25:16;;;;;;;9.27;3.30;;;16.10;99.90;;;;;;5112825;28;20054;-64
2022/07/28 05:27:46;;;;;;;11.25;3.42;;;16.10;99.90;;;;;;5093878;28;20478;-64
2022/07/28 05:30:14;;;;;;;7.68;2.33;;;16.20;99.90;;;;;;5110513;28;20048;-64
2022/07/28 05:32:41;;;;;;;9.38;2.80;;;16.20;99.90;;;;;;5111035;28;20496;-64
2022/07/28 05:35:08;;;;;;;9.50;2.78;;;16.30;99.90;;;;;;5108104;28;20058;-64
2022/07/28 05:37:35;;;;;;;7.47;2.38;;;16.40;99.90;;;;;;5112362;28;20062;-63
2022/07/28 05:40:04;;;;;;;5.45;2.28;;;16.50;99.90;;;;;;5108838;28;20051;-64
2022/07/28 05:42:34;;;;;;;6.10;2.38;;;16.60;99.90;;;;;;5110244;28;20051;-63
2022/07/28 05:45:06;;;;;;;9.07;3.03;;;16.80;99.90;;;;;;5112410;28;20071;-63
2022/07/28 05:47:51;;;;;;;8.20;2.08;;;16.90;99.90;;;;;;5110527;28;20047;-63
2022/07/28 05:50:19;;;;;;;6.85;2.38;;;17.00;99.90;;;;;;5091664;28;20060;-63
2022/07/28 05:52:47;;;;;;;7.88;2.42;;;17.20;99.90;;;;;;5109086;28;20054;-68
2022/07/28 05:55:14;;;;;;;6.13;2.58;;;17.50;99.90;;;;;;5094231;28;20403;-64
2022/07/28 05:57:41;;;;;;;6.47;2.15;;;17.70;99.90;;;;;;5112151;28;20073;-63
2022/07/28 06:00:10;;;;;;;11.32;3.10;;;17.80;99.90;;;;;;5109340;28;20047;-64
2022/07/28 06:02:38;;;;;;;7.18;3.03;;;17.80;99.90;;;;;;5077631;28;20390;-64
2022/07/28 06:05:05;;;;;;;4.68;2.08;;;18.00;99.90;;;;;;5110278;28;20469;-68
2022/07/28 06:07:32;;;;;;;6.63;2.05;;;18.10;99.90;;;;;;5107823;28;20055;-64
2022/07/28 06:10:10;;;;;;;9.88;2.20;;;18.20;99.90;;;;;;5109784;28;20055;-64
2022/07/28 06:12:44;;;;;;;4.72;2.30;;;18.20;99.90;;;;;;5110463;28;20108;-64
2022/07/28 06:15:15;;;;;;;5.13;2.45;;;18.20;99.90;;;;;;5109598;28;20039;-64
2022/07/28 06:17:42;;;;;;;21.23;13.93;;;18.30;99.90;;;;;;5109481;28;20134;-64
2022/07/28 06:20:09;;;;;;;9.65;4.57;;;18.30;99.90;;;;;;5111067;28;20047;-64
2022/07/28 06:22:44;;;;;;;7.55;2.85;;;18.40;99.90;;;;;;5097383;28;20048;-69
2022/07/28 06:25:22;;;;;;;7.72;2.65;;;18.50;99.90;;;;;;5082224;28;20043;-69
2022/07/28 06:27:55;;;;;;;6.82;2.17;;;18.60;99.90;;;;;;5089021;28;20052;-68
2022/07/28 06:30:22;;;;;;;9.30;3.78;;;18.80;99.90;;;;;;5072886;28;20048;-69
2022/07/28 06:32:49;;;;;;;5.80;2.53;;;18.90;99.90;;;;;;5095542;28;20039;-71
2022/07/28 06:35:16;;;;;;;15.77;9.93;;;19.00;99.90;;;;;;5101418;28;20048;-70
2022/07/28 06:37:43;;;;;;;10.65;4.00;;;19.00;99.90;;;;;;5080322;28;20051;-69
2022/07/28 06:40:11;;;;;;;7.15;2.78;;;19.20;99.90;;;;;;5081544;28;20410;-69
2022/07/28 06:42:38;;;;;;;6.75;2.55;;;19.20;99.90;;;;;;5110953;28;20062;-70
2022/07/28 06:45:06;;;;;;;13.75;3.35;;;19.00;99.90;;;;;;5107485;28;20074;-68
2022/07/28 06:47:32;;;;;;;11.23;2.50;;;19.00;99.90;;;;;;5063396;28;20044;-69
2022/07/28 06:49:59;;;;;;;10.93;2.38;;;19.00;99.90;;;;;;5095144;28;20134;-68
2022/07/28 06:52:26;;;;;;;8.70;3.30;;;19.00;99.90;;;;;;5114897;28;20157;-69
2022/07/28 06:54:53;;;;;;;7.05;2.50;;;19.10;99.90;;;;;;5113341;28;20043;-69
2022/07/28 06:57:23;;;;;;;5.60;2.40;;;19.10;99.90;;;;;;5114245;28;20185;-69
2022/07/28 07:00:01;;;;;;;6.78;2.72;;;19.10;99.90;;;;;;5112662;28;20044;-69
2022/07/28 07:02:28;;;;;;;5.40;2.35;;;19.30;99.90;;;;;;5113731;28;20487;-69
2022/07/28 07:04:55;;;;;;;10.63;3.35;;;19.30;99.90;;;;;;5113877;28;20047;-69
2022/07/28 07:07:22;;;;;;;6.43;3.28;;;19.50;99.90;;;;;;5113405;28;20047;-69
2022/07/28 07:09:50;;;;;;;8.13;3.22;;;19.50;99.90;;;;;;5113524;28;20047;-69
2022/07/28 07:12:17;;;;;;;5.72;2.30;;;19.60;99.90;;;;;;5113013;28;20146;-69
2022/07/28 07:14:44;;;;;;;6.72;2.55;;;19.70;99.90;;;;;;5113406;28;20043;-69
2022/07/28 07:17:11;;;;;;;8.05;2.40;;;19.70;99.90;;;;;;5112760;28;20048;-69
2022/07/28 07:19:38;;;;;;;5.10;2.20;;;19.70;99.90;;;;;;5111409;28;20047;-69
2022/07/28 07:22:05;;;;;;;4.55;2.03;;;19.80;99.90;;;;;;5108654;27;20036;-69
2022/07/28 07:24:32;;;;;;;5.35;2.10;;;19.80;99.90;;;;;;5092547;28;20144;-67
2022/07/28 07:26:59;;;;;;;4.45;2.47;;;19.80;99.90;;;;;;5107351;28;20050;-69
2022/07/28 07:29:25;;;;;;;7.20;2.33;;;19.90;99.90;;;;;;5105678;28;20044;-68
2022/07/28 07:31:57;;;;;;;6.28;2.40;;;20.00;99.90;;;;;;5091989;28;20113;-69
2022/07/28 07:34:24;;;;;;;15.45;9.13;;;20.20;99.90;;;;;;5108036;28;20055;-69
2022/07/28 07:36:51;;;;;;;7.55;3.78;;;20.30;99.90;;;;;;5092761;28;20035;-70
2022/07/28 07:39:18;;;;;;;9.40;4.00;;;20.50;99.90;;;;;;5090458;28;20058;-66
2022/07/28 07:41:45;;;;;;;5.47;2.63;;;20.60;99.90;;;;;;5105438;28;20040;-67
2022/07/28 07:44:12;;;;;;;12.02;2.58;;;20.70;99.90;;;;;;5105251;28;20506;-68
2022/07/28 07:46:39;;;;;;;5.53;2.40;;;20.80;99.90;;;;;;5112695;28;20062;-68
2022/07/28 07:49:06;;;;;;;5.07;1.90;;;20.90;99.90;;;;;;5092838;28;20051;-69
2022/07/28 07:51:33;;;;;;;8.23;2.05;;;21.00;99.90;;;;;;5108381;27;20054;-66
2022/07/28 07:54:00;;;;;;;6.95;2.63;;;21.10;99.90;;;;;;5107462;28;20482;-68
2022/07/28 07:56:27;;;;;;;4.05;1.92;;;21.10;99.90;;;;;;5072278;28;20048;-69
2022/07/28 07:58:54;;;;;;;5.28;2.35;;;21.00;99.90;;;;;;5113743;28;20047;-67
2022/07/28 08:01:23;;;;;;;6.35;2.38;;;21.10;99.90;;;;;;5091989;28;20040;-68
2022/07/28 08:03:50;;;;;;;4.88;2.00;;;21.10;99.90;;;;;;5087947;28;20112;-72
2022/07/28 08:06:19;;;;;;;5.93;3.53;;;21.10;99.90;;;;;;5093733;28;20048;-77
2022/07/28 08:08:53;;;;;;;9.13;5.72;;;21.20;99.90;;;;;;5111619;27;20118;-76
2022/07/28 08:11:20;;;;;;;12.82;5.38;;;21.30;99.90;;;;;;5109237;28;20059;-73
2022/07/28 08:13:47;;;;;;;6.63;2.63;;;21.40;99.90;;;;;;5112413;28;20494;-71
2022/07/28 08:16:14;;;;;;;4.00;2.20;;;21.40;99.90;;;;;;5113486;28;20048;-71
2022/07/28 08:18:41;;;;;;;10.38;8.65;;;21.40;99.90;;;;;;5095619;28;20055;-72
2022/07/28 08:21:08;;;;;;;8.15;4.57;;;21.40;99.90;;;;;;5111586;28;20043;-72
2022/07/28 08:23:35;;;;;;;9.77;3.42;;;21.40;99.90;;;;;;5086437;28;20040;-72
2022/07/28 08:26:03;;;;;;;5.55;1.90;;;21.50;99.90;;;;;;5092564;28;20962;-73
2022/07/28 08:28:30;;;;;;;7.63;2.70;;;21.80;99.90;;;;;;5074840;28;20449;-72
2022/07/28 08:30:58;;;;;;;5.20;2.17;;;21.90;99.90;;;;;;5091588;28;20044;-72
2022/07/28 08:33:25;;;;;;;6.38;2.00;;;21.80;99.90;;;;;;5091387;28;20476;-72
2022/07/28 08:35:52;;;;;;;4.45;2.40;;;21.70;99.90;;;;;;5101519;28;20486;-72
2022/07/28 08:38:18;;;;;;;7.95;2.40;;;21.70;99.20;;;;;;5111692;28;20051;-72
2022/07/28 08:40:48;;;;;;;6.82;2.85;;;21.80;99.90;;;;;;5111716;28;20418;-72
2022/07/28 08:43:19;;;;;;;;;;;21.80;97.50;;;;;;5112136;28;20487;-72
2022/07/28 08:45:47;;;;;;;4.93;2.17;;;21.90;97.30;;;;;;5111630;28;20275;-72
2022/07/28 08:48:15;;;;;;;5.43;1.83;;;22.10;98.20;;;;;;5113102;28;20384;-72
2022/07/28 08:50:43;;;;;;;7.25;2.30;;;22.20;97.90;;;;;;5094644;28;20074;-72
2022/07/28 08:53:10;;;;;;;4.50;1.80;;;22.30;96.20;;;;;;5111268;28;20363;-72
2022/07/28 08:55:37;;;;;;;5.35;2.63;;;22.30;97.30;;;;;;5110981;28;20055;-72
2022/07/28 08:58:04;;;;;;;5.15;2.03;;;22.30;94.10;;;;;;5111790;28;20048;-72
2022/07/28 09:00:31;;;;;;;8.05;2.13;;;22.30;94.60;;;;;;5112333;27;20039;-72
2022/07/28 09:02:58;;;;;;;5.68;1.55;;;22.30;94.60;;;;;;5111629;28;20073;-73
2022/07/28 09:05:25;;;;;;;11.95;2.92;;;22.30;92.50;;;;;;5111073;28;20441;-72
2022/07/28 09:07:53;;;;;;;5.40;1.90;;;22.10;91.80;;;;;;5111094;28;20056;-73
2022/07/28 09:10:21;;;;;;;4.82;2.20;;;22.10;92.40;;;;;;5111610;28;20050;-73
2022/07/28 09:12:48;;;;;;;4.57;1.80;;;22.30;92.90;;;;;;5111419;28;20058;-72
2022/07/28 09:15:15;;;;;;;4.25;1.90;;;22.50;92.90;;;;;;5094211;28;20143;-72
2022/07/28 09:17:42;;;;;;;3.78;1.95;;;22.50;91.60;;;;;;5094465;28;20126;-72
2022/07/28 09:20:09;;;;;;;5.85;2.00;;;22.70;91.40;;;;;;5094712;28;20051;-72
2022/07/28 09:22:59;;;;;;;6.30;1.83;;;22.80;90.70;;;;;;5094603;28;20054;-72
2022/07/28 09:25:26;;;;;;;6.05;2.10;;;22.90;89.30;;;;;;5111400;28;20043;-72
2022/07/28 09:27:54;;;;;;;19.38;3.83;;;22.90;88.00;;;;;;5111547;28;20058;-73
2022/07/28 09:30:31;;;;;;;10.52;3.10;;;23.10;87.50;;;;;;5110774;28;20059;-73
2022/07/28 09:33:13;;;;;;;5.45;2.30;;;22.90;85.40;;;;;;5094559;28;20164;-73
2022/07/28 09:36:00;;;;;;;81.20;9.65;;;22.80;85.80;;;;;;5112698;28;20044;-73
2022/07/28 09:38:28;;;;;;;154.82;21.27;;;22.70;87.20;;;;;;5112160;28;20126;-72
2022/07/28 09:40:59;;;;;;;61.28;7.40;;;22.60;86.10;;;;;;5111010;28;20054;-73
2022/07/28 09:43:37;;;;;;;15.40;3.50;;;22.60;86.40;;;;;;5111216;28;20050;-73
2022/07/28 09:46:07;;;;;;;5.97;2.30;;;22.70;86.60;;;;;;5093956;28;20047;-73
2022/07/28 09:48:48;;;;;;;3.47;1.52;;;22.80;83.90;;;;;;5110544;28;20048;-73
2022/07/28 09:51:21;;;;;;;4.25;1.88;;;22.90;84.20;;;;;;5094026;28;20112;-72
2022/07/28 09:53:48;;;;;;;6.60;2.00;;;23.00;85.70;;;;;;5094107;28;20043;-73
2022/07/28 09:56:15;;;;;;;8.63;2.97;;;23.20;84.70;;;;;;5111058;28;20105;-72
2022/07/28 09:58:55;;;;;;;5.30;2.55;;;23.20;81.80;;;;;;5111851;28;20054;-73
2022/07/28 10:01:23;;;;;;;5.40;2.38;;;23.20;79.30;;;;;;5110348;28;20075;-72
2022/07/28 10:03:52;;;;;;;4.43;1.52;;;23.10;79.50;;;;;;5110539;28;20101;-73
2022/07/28 10:06:23;;;;;;;4.88;1.95;;;23.10;78.00;;;;;;5109619;28;22848;-73
2022/07/28 10:08:53;;;;;;;5.93;1.83;;;23.10;77.20;;;;;;5110508;28;20059;-72
2022/07/28 10:11:23;;;;;;;6.38;1.63;;;23.10;80.00;;;;;;5110438;28;20066;-73
2022/07/28 10:13:52;;;;;;;4.50;2.08;;;23.10;79.60;;;;;;5110314;28;20054;-72
2022/07/28 10:16:20;;;;;;;6.90;1.83;;;23.20;78.40;;;;;;5081873;28;20414;-72
2022/07/28 10:18:47;;;;;;;3.60;2.58;;;23.20;79.00;;;;;;5091165;28;20048;-73
2022/07/28 10:21:15;;;;;;;6.60;2.00;;;23.20;79.10;;;;;;5091315;28;20051;-72
2022/07/28 10:23:47;;;;;;;6.55;1.77;;;23.30;80.10;;;;;;5073515;28;20049;-73
2022/07/28 10:26:14;;;;;;;25.63;5.22;;;23.50;78.90;;;;;;5089984;28;20369;-71
2022/07/28 10:28:46;;;;;;;9.00;2.47;;;23.60;79.70;;;;;;5091501;28;20058;-71
2022/07/28 10:31:13;;;;;;;171.32;20.98;;;23.70;78.40;;;;;;5072134;28;20514;-71
2022/07/28 10:33:46;;;;;;;24.75;6.82;;;23.70;77.70;;;;;;5071518;28;20043;-71
2022/07/28 10:36:13;;;;;;;7.40;2.83;;;23.50;79.50;;;;;;5084429;28;20058;-71
2022/07/28 10:38:40;;;;;;;4.68;2.03;;;23.40;79.10;;;;;;5091313;28;20071;-71
2022/07/28 10:41:08;;;;;;;5.15;2.03;;;23.40;78.90;;;;;;5091444;28;20127;-71
2022/07/28 10:43:35;;;;;;;10.75;2.85;;;23.30;80.00;;;;;;5108630;28;20052;-71
2022/07/28 10:46:08;;;;;;;6.32;2.55;;;23.40;77.90;;;;;;5088345;28;20052;-71
2022/07/28 10:48:42;;;;;;;7.90;1.98;;;23.30;76.40;;;;;;5089853;28;20048;-71
2022/07/28 10:51:09;;;;;;;3.90;1.80;;;23.30;78.00;;;;;;5072947;28;20052;-71
2022/07/28 10:53:40;;;;;;;5.18;1.88;;;23.30;77.50;;;;;;5090643;28;20050;-72
2022/07/28 10:56:17;;;;;;;5.65;2.45;;;23.30;75.90;;;;;;5091399;28;20044;-71
2022/07/28 10:59:14;;;;;;;8.98;3.00;;;23.40;78.60;;;;;;5090497;28;20055;-72
2022/07/28 11:01:41;;;;;;;4.07;1.90;;;23.40;77.40;;;;;;5090163;28;20472;-71
2022/07/28 11:04:47;;;;;;;5.63;2.40;;;23.40;79.50;;;;;;5090300;28;20048;-72
2022/07/28 11:07:15;;;;;;;6.18;3.20;;;23.50;77.00;;;;;;5090898;28;20055;-72
2022/07/28 11:09:43;;;;;;;11.30;8.50;;;23.70;77.00;;;;;;5073054;28;20106;-71
2022/07/28 11:12:14;;;;;;;6.47;3.38;;;23.60;77.60;;;;;;5089116;28;20052;-72
2022/07/28 11:14:42;;;;;;;7.30;2.83;;;23.80;78.30;;;;;;5098684;28;20047;-77
2022/07/28 11:17:12;;;;;;;10.95;3.10;;;23.90;78.00;;;;;;5110152;28;20066;-71
2022/07/28 11:19:42;;;;;;;9.98;2.95;;;23.80;78.70;;;;;;5114127;28;20405;-76
2022/07/28 11:22:29;;;;;;;6.68;3.13;;;23.80;77.40;;;;;;5115540;27;20043;-81
2022/07/28 11:25:01;;;;;;;10.50;3.50;;;23.50;79.40;;;;;;5117853;28;20043;-78
2022/07/28 11:27:49;;;;;;;5.35;2.55;;;23.40;82.00;;;;;;5114911;27;20155;-76
2022/07/28 11:30:34;;;;;;;6.93;2.70;;;23.50;81.60;;;;;;5114900;28;20087;-64
2022/07/28 11:33:05;;;;;;;12.43;3.70;;;23.70;83.00;;;;;;5113628;28;20052;-72
2022/07/28 11:35:38;;;;;;;7.38;2.60;;;23.60;81.30;;;;;;5113960;28;20154;-72
2022/07/28 11:38:07;;;;;;;9.50;2.78;;;23.50;81.40;;;;;;5113116;28;20051;-68
2022/07/28 11:40:35;;;;;;;;;;;23.50;82.30;;;;;;5113772;28;20052;-69
2022/07/28 11:43:21;;;;;;;13.93;8.25;;;23.50;82.70;;;;;;5111725;28;20410;-66
2022/07/28 11:46:03;;;;;;;7.82;2.58;;;23.40;82.80;;;;;;5107816;28;20048;-69
2022/07/28 11:48:35;;;;;;;6.95;4.03;;;23.60;83.30;;;;;;5104857;28;20048;-66
2022/07/28 11:51:02;;;;;;;5.03;3.05;;;23.80;83.00;;;;;;5087119;28;20474;-68
2022/07/28 11:53:45;;;;;;;7.78;2.78;;;23.90;82.30;;;;;;5109137;28;20407;-65
2022/07/28 11:56:13;;;;;;;9.60;3.53;;;23.90;82.20;;;;;;5089811;28;20134;-70
2022/07/28 11:58:40;;;;;;;11.60;2.92;;;23.70;83.10;;;;;;5092118;28;20438;-67
2022/07/28 12:01:18;;;;;;;16.50;4.32;;;23.50;84.30;;;;;;5081528;28;20044;-67
2022/07/28 12:03:50;;;;;;;5.47;2.80;;;23.30;84.90;;;;;;5077532;28;20474;-67
2022/07/28 12:06:23;;;;;;;5.78;2.95;;;23.20;85.50;;;;;;5086832;28;20082;-67
2022/07/28 12:09:01;;;;;;;8.50;2.90;;;23.30;86.80;;;;;;5104305;28;20059;-66
2022/07/28 12:11:32;;;;;;;10.05;2.80;;;23.30;86.40;;;;;;5068159;28;20063;-67
2022/07/28 12:14:01;;;;;;;7.18;3.05;;;23.30;86.70;;;;;;5076323;28;20062;-67
2022/07/28 12:16:31;;;;;;;19.33;7.05;;;23.30;89.20;;;;;;5108171;28;20645;-67
2022/07/28 12:19:02;;;;;;;9.75;3.60;;;23.40;90.60;;;;;;5074005;28;20495;-70
2022/07/28 12:21:39;;;;;;;12.73;3.53;;;23.40;90.40;;;;;;5090784;28;20047;-65
2022/07/28 12:24:19;;;;;;;6.75;3.10;;;23.30;88.90;;;;;;5098239;28;20135;-66
2022/07/28 12:26:47;;;;;;;19.10;4.05;;;23.50;89.30;;;;;;5111549;28;20101;-66
2022/07/28 12:29:16;;;;;;;;;;;23.70;90.30;;;;;;5089296;28;20056;-66
2022/07/28 12:31:57;;;;;;;12.32;3.70;;;23.70;90.20;;;;;;5082113;28;19926;-66
2022/07/28 12:34:25;;;;;;;8.90;3.55;;;23.70;89.70;;;;;;5078840;28;20048;-66
2022/07/28 12:36:56;;;;;;;8.00;3.95;;;23.60;90.40;;;;;;5088125;28;20475;-66
2022/07/28 12:39:24;;;;;;;10.57;3.92;;;23.40;90.90;;;;;;5084782;28;20058;-74
2022/07/28 12:42:05;;;;;;;30.92;16.05;;;23.50;91.60;;;;;;5099446;28;20100;-66
2022/07/28 12:44:40;;;;;;;8.75;4.78;;;23.70;90.90;;;;;;5069407;28;20044;-69
2022/07/28 12:47:09;;;;;;;6.70;3.33;;;23.70;90.70;;;;;;5098775;28;20044;-67
2022/07/28 12:49:37;;;;;;;10.25;4.10;;;23.70;90.80;;;;;;5088168;28;20134;-67
2022/07/28 12:52:20;;;;;;;11.07;3.28;;;23.70;90.50;;;;;;5108332;28;20066;-68
2022/07/28 12:54:48;;;;;;;8.82;3.72;;;23.70;90.70;;;;;;5097104;28;20044;-67
2022/07/28 12:57:40;;;;;;;7.18;3.63;;;23.80;90.60;;;;;;5094239;28;20066;-68
2022/07/28 13:00:17;;;;;;;4.32;2.72;;;23.70;90.00;;;;;;5106559;28;20502;-73
2022/07/28 13:02:45;;;;;;;6.13;3.35;;;23.70;90.30;;;;;;5077223;28;20425;-76